RJDA(METAR)
10/16 18:00
METAR RJDA 160900Z VRB01KT 9999 FEW040 18/13 Q1020 RMK 1CU040 A3014=
戻る
トップページへ戻る
IMOC Co,.Ltd.